sensor_id;sensor_type;location;lat;lon;timestamp;temperature;humidity
13982;DHT22;7065;50.880;5.502;2023-02-18T00:01:10;10.30;99.90
13982;DHT22;7065;50.880;5.502;2023-02-18T00:03:37;10.30;99.90
13982;DHT22;7065;50.880;5.502;2023-02-18T00:06:43;10.20;99.90
13982;DHT22;7065;50.880;5.502;2023-02-18T00:09:04;10.20;99.90
13982;DHT22;7065;50.880;5.502;2023-02-18T00:11:32;10.20;99.90
13982;DHT22;7065;50.880;5.502;2023-02-18T00:14:01;10.20;99.90
13982;DHT22;7065;50.880;5.502;2023-02-18T00:16:29;10.20;99.90
13982;DHT22;7065;50.880;5.502;2023-02-18T00:18:56;10.20;99.90
13982;DHT22;7065;50.880;5.502;2023-02-18T00:21:21;10.20;99.90
13982;DHT22;7065;50.880;5.502;2023-02-18T00:23:47;10.20;99.90
13982;DHT22;7065;50.880;5.502;2023-02-18T00:26:14;10.20;99.90
13982;DHT22;7065;50.880;5.502;2023-02-18T00:28:41;10.20;99.90
13982;DHT22;7065;50.880;5.502;2023-02-18T00:31:12;10.20;99.90
13982;DHT22;7065;50.880;5.502;2023-02-18T00:33:39;10.30;99.90
13982;DHT22;7065;50.880;5.502;2023-02-18T00:36:08;10.30;99.90
13982;DHT22;7065;50.880;5.502;2023-02-18T00:38:34;10.30;99.90
13982;DHT22;7065;50.880;5.502;2023-02-18T00:41:01;10.30;99.90
13982;DHT22;7065;50.880;5.502;2023-02-18T00:43:26;10.20;99.90
13982;DHT22;7065;50.880;5.502;2023-02-18T00:45:52;10.30;99.90
13982;DHT22;7065;50.880;5.502;2023-02-18T00:48:18;10.30;99.90
13982;DHT22;7065;50.880;5.502;2023-02-18T00:50:44;10.30;99.90
13982;DHT22;7065;50.880;5.502;2023-02-18T00:53:11;10.30;99.90
13982;DHT22;7065;50.880;5.502;2023-02-18T00:55:41;10.30;99.90
13982;DHT22;7065;50.880;5.502;2023-02-18T00:58:07;10.30;99.90
13982;DHT22;7065;50.880;5.502;2023-02-18T01:00:33;10.30;99.90
13982;DHT22;7065;50.880;5.502;2023-02-18T01:02:59;10.30;99.90
13982;DHT22;7065;50.880;5.502;2023-02-18T01:05:24;10.30;99.90
13982;DHT22;7065;50.880;5.502;2023-02-18T01:07:50;10.30;99.90
13982;DHT22;7065;50.880;5.502;2023-02-18T01:10:16;10.30;99.90
13982;DHT22;7065;50.880;5.502;2023-02-18T01:12:42;10.30;99.90
13982;DHT22;7065;50.880;5.502;2023-02-18T01:15:08;10.30;99.90
13982;DHT22;7065;50.880;5.502;2023-02-18T01:17:34;10.30;99.90
13982;DHT22;7065;50.880;5.502;2023-02-18T01:19:59;10.30;99.90
13982;DHT22;7065;50.880;5.502;2023-02-18T01:22:25;10.30;99.90
13982;DHT22;7065;50.880;5.502;2023-02-18T01:24:51;10.40;99.90
13982;DHT22;7065;50.880;5.502;2023-02-18T01:27:17;10.40;99.90
13982;DHT22;7065;50.880;5.502;2023-02-18T01:29:43;10.40;99.90
13982;DHT22;7065;50.880;5.502;2023-02-18T01:32:08;10.40;99.90
13982;DHT22;7065;50.880;5.502;2023-02-18T01:34:35;10.40;99.90
13982;DHT22;7065;50.880;5.502;2023-02-18T01:37:01;10.40;99.90
13982;DHT22;7065;50.880;5.502;2023-02-18T01:39:26;10.40;99.90
13982;DHT22;7065;50.880;5.502;2023-02-18T01:41:52;10.40;99.90
13982;DHT22;7065;50.880;5.502;2023-02-18T01:44:24;10.40;99.90
13982;DHT22;7065;50.880;5.502;2023-02-18T01:46:51;10.40;99.90
13982;DHT22;7065;50.880;5.502;2023-02-18T01:49:26;10.40;99.90
13982;DHT22;7065;50.880;5.502;2023-02-18T01:51:56;10.40;99.90
13982;DHT22;7065;50.880;5.502;2023-02-18T01:54:26;10.40;99.90
13982;DHT22;7065;50.880;5.502;2023-02-18T01:57:00;10.50;99.90
13982;DHT22;7065;50.880;5.502;2023-02-18T01:59:31;10.50;99.90
13982;DHT22;7065;50.880;5.502;2023-02-18T02:01:57;10.50;99.90
13982;DHT22;7065;50.880;5.502;2023-02-18T02:04:24;10.50;99.90
13982;DHT22;7065;50.880;5.502;2023-02-18T02:06:50;10.50;99.90
13982;DHT22;7065;50.880;5.502;2023-02-18T02:09:17;10.50;99.90
13982;DHT22;7065;50.880;5.502;2023-02-18T02:11:57;10.50;99.90
13982;DHT22;7065;50.880;5.502;2023-02-18T02:17:22;10.50;99.90
13982;DHT22;7065;50.880;5.502;2023-02-18T02:36:33;10.40;99.90
13982;DHT22;7065;50.880;5.502;2023-02-18T02:44:54;10.40;99.90
13982;DHT22;7065;50.880;5.502;2023-02-18T02:47:36;10.40;99.90
13982;DHT22;7065;50.880;5.502;2023-02-18T02:50:09;10.40;99.90
13982;DHT22;7065;50.880;5.502;2023-02-18T02:52:48;10.40;99.90
13982;DHT22;7065;50.880;5.502;2023-02-18T02:55:14;10.40;99.90
13982;DHT22;7065;50.880;5.502;2023-02-18T02:57:50;10.40;99.90
13982;DHT22;7065;50.880;5.502;2023-02-18T03:00:18;10.40;99.90
13982;DHT22;7065;50.880;5.502;2023-02-18T03:06:23;10.40;99.90
13982;DHT22;7065;50.880;5.502;2023-02-18T03:08:54;10.30;99.90
13982;DHT22;7065;50.880;5.502;2023-02-18T03:11:24;10.40;99.90
13982;DHT22;7065;50.880;5.502;2023-02-18T03:16:41;10.40;99.90
13982;DHT22;7065;50.880;5.502;2023-02-18T03:19:20;10.30;99.90
13982;DHT22;7065;50.880;5.502;2023-02-18T03:21:49;10.30;99.90
13982;DHT22;7065;50.880;5.502;2023-02-18T03:24:22;10.30;99.90
13982;DHT22;7065;50.880;5.502;2023-02-18T03:26:58;10.30;99.90
13982;DHT22;7065;50.880;5.502;2023-02-18T03:29:27;10.30;99.90
13982;DHT22;7065;50.880;5.502;2023-02-18T03:31:58;10.30;99.90
13982;DHT22;7065;50.880;5.502;2023-02-18T03:34:29;10.30;99.90
13982;DHT22;7065;50.880;5.502;2023-02-18T03:36:57;10.30;99.90
13982;DHT22;7065;50.880;5.502;2023-02-18T03:39:26;10.30;99.90
13982;DHT22;7065;50.880;5.502;2023-02-18T03:41:52;10.30;99.90
13982;DHT22;7065;50.880;5.502;2023-02-18T03:44:18;10.30;99.90
13982;DHT22;7065;50.880;5.502;2023-02-18T03:46:45;10.40;99.90
13982;DHT22;7065;50.880;5.502;2023-02-18T03:49:12;10.40;99.90
13982;DHT22;7065;50.880;5.502;2023-02-18T03:51:38;10.40;99.90
13982;DHT22;7065;50.880;5.502;2023-02-18T03:54:04;10.40;99.90
13982;DHT22;7065;50.880;5.502;2023-02-18T03:56:30;10.40;99.90
13982;DHT22;7065;50.880;5.502;2023-02-18T03:58:55;10.40;99.90
13982;DHT22;7065;50.880;5.502;2023-02-18T04:01:21;10.40;99.90
13982;DHT22;7065;50.880;5.502;2023-02-18T04:03:47;10.40;99.90
13982;DHT22;7065;50.880;5.502;2023-02-18T04:06:13;10.40;99.90
13982;DHT22;7065;50.880;5.502;2023-02-18T04:08:38;10.40;99.90
13982;DHT22;7065;50.880;5.502;2023-02-18T04:11:04;10.40;99.90
13982;DHT22;7065;50.880;5.502;2023-02-18T04:13:31;10.30;99.90
13982;DHT22;7065;50.880;5.502;2023-02-18T04:15:56;10.30;99.90
13982;DHT22;7065;50.880;5.502;2023-02-18T04:18:22;10.30;99.90
13982;DHT22;7065;50.880;5.502;2023-02-18T04:20:48;10.20;99.90
13982;DHT22;7065;50.880;5.502;2023-02-18T04:23:14;10.20;99.90
13982;DHT22;7065;50.880;5.502;2023-02-18T04:25:40;10.30;99.90
13982;DHT22;7065;50.880;5.502;2023-02-18T04:28:06;10.20;99.90
13982;DHT22;7065;50.880;5.502;2023-02-18T04:30:32;10.20;99.90
13982;DHT22;7065;50.880;5.502;2023-02-18T04:32:58;10.20;99.90
13982;DHT22;7065;50.880;5.502;2023-02-18T04:35:23;10.20;99.90
13982;DHT22;7065;50.880;5.502;2023-02-18T04:37:49;10.20;99.90
13982;DHT22;7065;50.880;5.502;2023-02-18T04:40:15;10.30;99.90
13982;DHT22;7065;50.880;5.502;2023-02-18T04:42:41;10.20;99.90
13982;DHT22;7065;50.880;5.502;2023-02-18T04:45:07;10.20;99.90
13982;DHT22;7065;50.880;5.502;2023-02-18T04:47:33;10.20;99.90
13982;DHT22;7065;50.880;5.502;2023-02-18T04:49:59;10.30;99.90
13982;DHT22;7065;50.880;5.502;2023-02-18T04:52:24;10.30;99.90
13982;DHT22;7065;50.880;5.502;2023-02-18T04:54:51;10.30;99.90
13982;DHT22;7065;50.880;5.502;2023-02-18T04:57:17;10.30;99.90
13982;DHT22;7065;50.880;5.502;2023-02-18T04:59:43;10.40;99.90
13982;DHT22;7065;50.880;5.502;2023-02-18T05:02:08;10.40;99.90
13982;DHT22;7065;50.880;5.502;2023-02-18T05:04:34;10.40;99.90
13982;DHT22;7065;50.880;5.502;2023-02-18T05:07:00;10.40;99.90
13982;DHT22;7065;50.880;5.502;2023-02-18T05:09:26;10.40;99.90
13982;DHT22;7065;50.880;5.502;2023-02-18T05:11:52;10.40;99.90
13982;DHT22;7065;50.880;5.502;2023-02-18T05:14:18;10.40;99.90
13982;DHT22;7065;50.880;5.502;2023-02-18T05:16:43;10.40;99.90
13982;DHT22;7065;50.880;5.502;2023-02-18T05:19:15;10.30;99.90
13982;DHT22;7065;50.880;5.502;2023-02-18T05:21:41;10.30;99.90
13982;DHT22;7065;50.880;5.502;2023-02-18T05:24:07;10.40;99.90
13982;DHT22;7065;50.880;5.502;2023-02-18T05:26:33;10.30;99.90
13982;DHT22;7065;50.880;5.502;2023-02-18T05:28:59;10.30;99.90
13982;DHT22;7065;50.880;5.502;2023-02-18T05:31:24;10.30;99.90
13982;DHT22;7065;50.880;5.502;2023-02-18T05:33:51;10.40;99.90
13982;DHT22;7065;50.880;5.502;2023-02-18T05:36:17;10.40;99.90
13982;DHT22;7065;50.880;5.502;2023-02-18T05:38:42;10.30;99.90
13982;DHT22;7065;50.880;5.502;2023-02-18T05:41:08;10.30;99.90
13982;DHT22;7065;50.880;5.502;2023-02-18T05:43:34;10.30;99.90
13982;DHT22;7065;50.880;5.502;2023-02-18T05:46:18;10.30;99.90
13982;DHT22;7065;50.880;5.502;2023-02-18T05:48:44;10.30;99.90
13982;DHT22;7065;50.880;5.502;2023-02-18T05:51:10;10.30;99.90
13982;DHT22;7065;50.880;5.502;2023-02-18T05:53:36;10.30;99.90
13982;DHT22;7065;50.880;5.502;2023-02-18T05:56:02;10.30;99.90
13982;DHT22;7065;50.880;5.502;2023-02-18T05:58:28;10.20;99.90
13982;DHT22;7065;50.880;5.502;2023-02-18T06:00:53;10.20;99.90
13982;DHT22;7065;50.880;5.502;2023-02-18T06:03:19;10.20;99.90
13982;DHT22;7065;50.880;5.502;2023-02-18T06:05:51;10.20;99.90
13982;DHT22;7065;50.880;5.502;2023-02-18T06:08:17;10.20;99.90
13982;DHT22;7065;50.880;5.502;2023-02-18T06:10:45;10.20;99.90
13982;DHT22;7065;50.880;5.502;2023-02-18T06:13:12;10.20;99.90
13982;DHT22;7065;50.880;5.502;2023-02-18T06:15:38;10.20;99.90
13982;DHT22;7065;50.880;5.502;2023-02-18T06:18:04;10.10;99.90
13982;DHT22;7065;50.880;5.502;2023-02-18T06:20:30;10.20;99.90
13982;DHT22;7065;50.880;5.502;2023-02-18T06:22:56;10.10;99.90
13982;DHT22;7065;50.880;5.502;2023-02-18T06:25:23;10.10;99.90
13982;DHT22;7065;50.880;5.502;2023-02-18T06:27:48;10.10;99.90
13982;DHT22;7065;50.880;5.502;2023-02-18T06:30:14;10.00;99.90
13982;DHT22;7065;50.880;5.502;2023-02-18T06:32:40;10.00;99.90
13982;DHT22;7065;50.880;5.502;2023-02-18T06:35:05;10.00;99.90
13982;DHT22;7065;50.880;5.502;2023-02-18T06:37:31;9.90;99.90
13982;DHT22;7065;50.880;5.502;2023-02-18T06:39:57;9.90;99.90
13982;DHT22;7065;50.880;5.502;2023-02-18T06:42:23;9.80;99.90
13982;DHT22;7065;50.880;5.502;2023-02-18T06:44:48;9.80;99.90
13982;DHT22;7065;50.880;5.502;2023-02-18T06:47:14;9.70;99.90
13982;DHT22;7065;50.880;5.502;2023-02-18T06:49:40;9.70;99.90
13982;DHT22;7065;50.880;5.502;2023-02-18T06:52:05;9.60;99.90
13982;DHT22;7065;50.880;5.502;2023-02-18T06:54:32;9.60;99.90
13982;DHT22;7065;50.880;5.502;2023-02-18T06:56:57;9.60;99.90
13982;DHT22;7065;50.880;5.502;2023-02-18T06:59:24;9.60;99.90
13982;DHT22;7065;50.880;5.502;2023-02-18T07:01:50;9.60;99.90
13982;DHT22;7065;50.880;5.502;2023-02-18T07:04:15;9.60;99.90
13982;DHT22;7065;50.880;5.502;2023-02-18T07:06:42;9.60;99.90
13982;DHT22;7065;50.880;5.502;2023-02-18T07:09:07;9.60;99.90
13982;DHT22;7065;50.880;5.502;2023-02-18T07:11:33;9.60;99.90
13982;DHT22;7065;50.880;5.502;2023-02-18T07:13:59;9.60;99.90
13982;DHT22;7065;50.880;5.502;2023-02-18T07:16:25;9.70;99.90
13982;DHT22;7065;50.880;5.502;2023-02-18T07:18:51;9.70;99.90
13982;DHT22;7065;50.880;5.502;2023-02-18T07:21:16;9.70;99.90
13982;DHT22;7065;50.880;5.502;2023-02-18T07:23:42;9.70;99.90
13982;DHT22;7065;50.880;5.502;2023-02-18T07:26:10;9.70;99.90
13982;DHT22;7065;50.880;5.502;2023-02-18T07:28:36;9.70;99.90
13982;DHT22;7065;50.880;5.502;2023-02-18T07:31:02;9.70;99.90
13982;DHT22;7065;50.880;5.502;2023-02-18T07:33:29;9.70;99.90
13982;DHT22;7065;50.880;5.502;2023-02-18T07:35:56;9.70;99.90
13982;DHT22;7065;50.880;5.502;2023-02-18T07:38:23;9.70;99.90
13982;DHT22;7065;50.880;5.502;2023-02-18T07:40:49;9.70;99.90
13982;DHT22;7065;50.880;5.502;2023-02-18T07:43:16;9.70;99.90
13982;DHT22;7065;50.880;5.502;2023-02-18T07:45:42;9.70;99.90
13982;DHT22;7065;50.880;5.502;2023-02-18T07:48:08;9.70;99.90
13982;DHT22;7065;50.880;5.502;2023-02-18T07:50:34;9.70;99.90
13982;DHT22;7065;50.880;5.502;2023-02-18T07:53:03;9.70;99.90
13982;DHT22;7065;50.880;5.502;2023-02-18T07:55:29;9.70;99.90
13982;DHT22;7065;50.880;5.502;2023-02-18T07:58:15;9.70;99.90
13982;DHT22;7065;50.880;5.502;2023-02-18T08:00:40;9.70;99.90
13982;DHT22;7065;50.880;5.502;2023-02-18T08:03:06;9.70;99.90
13982;DHT22;7065;50.880;5.502;2023-02-18T08:05:32;9.70;99.90
13982;DHT22;7065;50.880;5.502;2023-02-18T08:07:57;9.70;99.90
13982;DHT22;7065;50.880;5.502;2023-02-18T08:10:23;9.60;99.90
13982;DHT22;7065;50.880;5.502;2023-02-18T08:12:49;9.70;99.90
13982;DHT22;7065;50.880;5.502;2023-02-18T08:15:15;9.70;99.90
13982;DHT22;7065;50.880;5.502;2023-02-18T08:17:41;9.70;99.90
13982;DHT22;7065;50.880;5.502;2023-02-18T08:20:07;9.70;99.90
13982;DHT22;7065;50.880;5.502;2023-02-18T08:22:33;9.70;99.90
13982;DHT22;7065;50.880;5.502;2023-02-18T08:24:58;9.80;99.90
13982;DHT22;7065;50.880;5.502;2023-02-18T08:27:25;9.70;99.90
13982;DHT22;7065;50.880;5.502;2023-02-18T08:29:51;9.70;99.90
13982;DHT22;7065;50.880;5.502;2023-02-18T08:32:17;9.70;99.90
13982;DHT22;7065;50.880;5.502;2023-02-18T08:34:42;9.70;99.90
13982;DHT22;7065;50.880;5.502;2023-02-18T08:37:08;9.70;99.90
13982;DHT22;7065;50.880;5.502;2023-02-18T08:39:35;9.70;99.90
13982;DHT22;7065;50.880;5.502;2023-02-18T08:42:01;9.70;99.90
13982;DHT22;7065;50.880;5.502;2023-02-18T08:44:27;9.70;99.90
13982;DHT22;7065;50.880;5.502;2023-02-18T08:46:53;9.70;99.90
13982;DHT22;7065;50.880;5.502;2023-02-18T08:49:18;9.70;99.90
13982;DHT22;7065;50.880;5.502;2023-02-18T08:51:49;9.80;99.90
13982;DHT22;7065;50.880;5.502;2023-02-18T08:54:16;9.90;99.90
13982;DHT22;7065;50.880;5.502;2023-02-18T08:56:42;9.90;99.90
13982;DHT22;7065;50.880;5.502;2023-02-18T08:59:07;9.90;99.90
13982;DHT22;7065;50.880;5.502;2023-02-18T09:01:33;9.90;99.90
13982;DHT22;7065;50.880;5.502;2023-02-18T09:03:59;10.00;99.90
13982;DHT22;7065;50.880;5.502;2023-02-18T09:06:26;10.00;99.90
13982;DHT22;7065;50.880;5.502;2023-02-18T09:08:51;10.10;99.90
13982;DHT22;7065;50.880;5.502;2023-02-18T09:11:17;10.10;99.90
13982;DHT22;7065;50.880;5.502;2023-02-18T09:13:44;10.10;99.90
13982;DHT22;7065;50.880;5.502;2023-02-18T09:16:17;10.10;99.90
13982;DHT22;7065;50.880;5.502;2023-02-18T09:18:43;10.20;99.90
13982;DHT22;7065;50.880;5.502;2023-02-18T09:21:12;10.10;99.90
13982;DHT22;7065;50.880;5.502;2023-02-18T09:23:38;10.10;99.90
13982;DHT22;7065;50.880;5.502;2023-02-18T09:26:05;10.20;99.90
13982;DHT22;7065;50.880;5.502;2023-02-18T09:28:31;10.20;99.90
13982;DHT22;7065;50.880;5.502;2023-02-18T09:30:57;10.30;99.90
13982;DHT22;7065;50.880;5.502;2023-02-18T09:33:28;10.30;99.90
13982;DHT22;7065;50.880;5.502;2023-02-18T09:35:53;10.20;99.90
13982;DHT22;7065;50.880;5.502;2023-02-18T09:38:19;10.20;99.90
13982;DHT22;7065;50.880;5.502;2023-02-18T09:40:49;10.20;99.90
13982;DHT22;7065;50.880;5.502;2023-02-18T09:43:32;10.20;99.90
13982;DHT22;7065;50.880;5.502;2023-02-18T09:46:01;10.20;99.90
13982;DHT22;7065;50.880;5.502;2023-02-18T09:48:33;10.20;99.90
13982;DHT22;7065;50.880;5.502;2023-02-18T09:51:00;10.20;99.90
13982;DHT22;7065;50.880;5.502;2023-02-18T09:53:26;10.20;99.90
13982;DHT22;7065;50.880;5.502;2023-02-18T09:55:54;10.20;99.90
13982;DHT22;7065;50.880;5.502;2023-02-18T09:58:31;10.20;99.90
13982;DHT22;7065;50.880;5.502;2023-02-18T10:01:16;10.20;99.90
13982;DHT22;7065;50.880;5.502;2023-02-18T10:03:43;10.20;99.90
13982;DHT22;7065;50.880;5.502;2023-02-18T10:06:15;10.20;99.90
13982;DHT22;7065;50.880;5.502;2023-02-18T10:08:47;10.20;99.90
13982;DHT22;7065;50.880;5.502;2023-02-18T10:11:20;10.10;99.90
13982;DHT22;7065;50.880;5.502;2023-02-18T10:13:48;10.10;99.90
13982;DHT22;7065;50.880;5.502;2023-02-18T10:16:16;10.00;99.90
13982;DHT22;7065;50.880;5.502;2023-02-18T10:18:45;10.00;99.90
13982;DHT22;7065;50.880;5.502;2023-02-18T10:21:23;10.00;99.90
13982;DHT22;7065;50.880;5.502;2023-02-18T10:24:06;10.00;99.90
13982;DHT22;7065;50.880;5.502;2023-02-18T10:26:36;10.00;99.90
13982;DHT22;7065;50.880;5.502;2023-02-18T10:29:03;9.90;99.90
13982;DHT22;7065;50.880;5.502;2023-02-18T10:31:41;10.00;99.90
13982;DHT22;7065;50.880;5.502;2023-02-18T10:36:45;9.90;99.90
13982;DHT22;7065;50.880;5.502;2023-02-18T10:39:37;9.90;99.90
13982;DHT22;7065;50.880;5.502;2023-02-18T10:45:04;10.00;99.90
13982;DHT22;7065;50.880;5.502;2023-02-18T10:47:44;9.90;99.90
13982;DHT22;7065;50.880;5.502;2023-02-18T10:55:52;9.70;99.90
13982;DHT22;7065;50.880;5.502;2023-02-18T11:00:52;9.70;99.90
13982;DHT22;7065;50.880;5.502;2023-02-18T11:03:21;9.70;99.90
13982;DHT22;7065;50.880;5.502;2023-02-18T11:05:50;9.80;99.90
13982;DHT22;7065;50.880;5.502;2023-02-18T11:08:25;9.80;99.90
13982;DHT22;7065;50.880;5.502;2023-02-18T11:10:52;9.90;99.90
13982;DHT22;7065;50.880;5.502;2023-02-18T11:13:28;9.90;99.90
13982;DHT22;7065;50.880;5.502;2023-02-18T11:16:05;9.90;99.90
13982;DHT22;7065;50.880;5.502;2023-02-18T11:18:38;10.00;99.90
13982;DHT22;7065;50.880;5.502;2023-02-18T11:21:28;10.00;99.90
13982;DHT22;7065;50.880;5.502;2023-02-18T11:23:55;9.90;99.90
13982;DHT22;7065;50.880;5.502;2023-02-18T11:26:32;9.90;99.90
13982;DHT22;7065;50.880;5.502;2023-02-18T11:29:07;9.80;99.90
13982;DHT22;7065;50.880;5.502;2023-02-18T11:31:43;9.80;99.90
13982;DHT22;7065;50.880;5.502;2023-02-18T11:34:16;9.70;99.90
13982;DHT22;7065;50.880;5.502;2023-02-18T11:36:43;9.70;99.90
13982;DHT22;7065;50.880;5.502;2023-02-18T11:39:25;9.70;99.90
13982;DHT22;7065;50.880;5.502;2023-02-18T11:41:57;9.70;99.90
13982;DHT22;7065;50.880;5.502;2023-02-18T11:44:36;9.70;99.90
13982;DHT22;7065;50.880;5.502;2023-02-18T11:47:25;9.70;99.90
13982;DHT22;7065;50.880;5.502;2023-02-18T11:52:29;9.90;99.90
13982;DHT22;7065;50.880;5.502;2023-02-18T11:57:45;10.00;99.90
13982;DHT22;7065;50.880;5.502;2023-02-18T12:02:48;10.10;99.90
13982;DHT22;7065;50.880;5.502;2023-02-18T12:05:21;10.00;99.90
13982;DHT22;7065;50.880;5.502;2023-02-18T12:10:49;10.00;99.90
13982;DHT22;7065;50.880;5.502;2023-02-18T12:13:34;9.90;99.90
13982;DHT22;7065;50.880;5.502;2023-02-18T12:37:34;9.70;99.90
13982;DHT22;7065;50.880;5.502;2023-02-18T12:51:27;9.70;99.90
13982;DHT22;7065;50.880;5.502;2023-02-18T12:54:03;9.70;99.90
13982;DHT22;7065;50.880;5.502;2023-02-18T12:59:21;9.70;99.90
13982;DHT22;7065;50.880;5.502;2023-02-18T13:08:08;9.70;99.90
13982;DHT22;7065;50.880;5.502;2023-02-18T13:16:25;9.80;99.90
13982;DHT22;7065;50.880;5.502;2023-02-18T13:21:29;9.80;99.90
13982;DHT22;7065;50.880;5.502;2023-02-18T13:23:59;9.80;99.90
13982;DHT22;7065;50.880;5.502;2023-02-18T13:26:27;9.80;99.90
13982;DHT22;7065;50.880;5.502;2023-02-18T13:34:43;9.90;99.90
13982;DHT22;7065;50.880;5.502;2023-02-18T13:40:22;9.90;99.90
13982;DHT22;7065;50.880;5.502;2023-02-18T13:42:52;9.90;99.90
13982;DHT22;7065;50.880;5.502;2023-02-18T13:45:32;9.90;99.90
13982;DHT22;7065;50.880;5.502;2023-02-18T13:47:58;9.90;99.90
13982;DHT22;7065;50.880;5.502;2023-02-18T13:50:29;9.90;99.90
13982;DHT22;7065;50.880;5.502;2023-02-18T13:58:34;10.00;99.90
13982;DHT22;7065;50.880;5.502;2023-02-18T14:01:05;10.00;99.90
13982;DHT22;7065;50.880;5.502;2023-02-18T14:06:14;10.00;99.90
13982;DHT22;7065;50.880;5.502;2023-02-18T14:08:41;9.90;99.90
13982;DHT22;7065;50.880;5.502;2023-02-18T14:16:09;10.00;99.90
13982;DHT22;7065;50.880;5.502;2023-02-18T14:36:38;10.00;99.90
13982;DHT22;7065;50.880;5.502;2023-02-18T14:39:40;10.00;99.90
13982;DHT22;7065;50.880;5.502;2023-02-18T14:45:13;9.90;99.90
13982;DHT22;7065;50.880;5.502;2023-02-18T14:47:52;9.90;99.90
13982;DHT22;7065;50.880;5.502;2023-02-18T14:50:21;9.90;99.90
13982;DHT22;7065;50.880;5.502;2023-02-18T14:52:49;9.90;99.90
13982;DHT22;7065;50.880;5.502;2023-02-18T14:55:25;9.90;99.90
13982;DHT22;7065;50.880;5.502;2023-02-18T14:58:05;9.90;99.90
13982;DHT22;7065;50.880;5.502;2023-02-18T15:00:40;10.00;99.90
13982;DHT22;7065;50.880;5.502;2023-02-18T15:03:16;10.00;99.90
13982;DHT22;7065;50.880;5.502;2023-02-18T15:05:44;10.00;99.90
13982;DHT22;7065;50.880;5.502;2023-02-18T15:08:16;9.90;99.90
13982;DHT22;7065;50.880;5.502;2023-02-18T15:13:30;9.90;99.90
13982;DHT22;7065;50.880;5.502;2023-02-18T15:16:05;10.00;99.90
13982;DHT22;7065;50.880;5.502;2023-02-18T15:18:41;10.00;99.90
13982;DHT22;7065;50.880;5.502;2023-02-18T15:21:16;10.00;99.90
13982;DHT22;7065;50.880;5.502;2023-02-18T15:23:45;10.00;99.90
13982;DHT22;7065;50.880;5.502;2023-02-18T15:26:15;10.00;99.90
13982;DHT22;7065;50.880;5.502;2023-02-18T15:28:50;10.00;99.90
13982;DHT22;7065;50.880;5.502;2023-02-18T15:31:16;10.00;99.90
13982;DHT22;7065;50.880;5.502;2023-02-18T15:33:43;10.00;99.90
13982;DHT22;7065;50.880;5.502;2023-02-18T15:36:12;10.00;99.90
13982;DHT22;7065;50.880;5.502;2023-02-18T15:38:38;10.00;99.90
13982;DHT22;7065;50.880;5.502;2023-02-18T15:41:10;10.00;99.90
13982;DHT22;7065;50.880;5.502;2023-02-18T15:43:38;10.00;99.90
13982;DHT22;7065;50.880;5.502;2023-02-18T15:46:12;10.00;99.90
13982;DHT22;7065;50.880;5.502;2023-02-18T15:48:46;10.00;99.90
13982;DHT22;7065;50.880;5.502;2023-02-18T15:51:15;10.00;99.90
13982;DHT22;7065;50.880;5.502;2023-02-18T15:53:44;10.00;99.90
13982;DHT22;7065;50.880;5.502;2023-02-18T15:56:28;10.00;99.90
13982;DHT22;7065;50.880;5.502;2023-02-18T16:01:51;10.00;99.90
13982;DHT22;7065;50.880;5.502;2023-02-18T16:04:19;10.10;99.90
13982;DHT22;7065;50.880;5.502;2023-02-18T16:06:49;10.10;99.90
13982;DHT22;7065;50.880;5.502;2023-02-18T16:09:21;10.00;99.90
13982;DHT22;7065;50.880;5.502;2023-02-18T16:11:50;10.00;99.90
13982;DHT22;7065;50.880;5.502;2023-02-18T16:14:35;10.00;99.90
13982;DHT22;7065;50.880;5.502;2023-02-18T16:19:50;10.10;99.90
13982;DHT22;7065;50.880;5.502;2023-02-18T16:27:52;10.00;99.90
13982;DHT22;7065;50.880;5.502;2023-02-18T16:30:23;10.00;99.90
13982;DHT22;7065;50.880;5.502;2023-02-18T16:32:50;10.10;99.90
13982;DHT22;7065;50.880;5.502;2023-02-18T16:35:17;10.10;99.90
13982;DHT22;7065;50.880;5.502;2023-02-18T16:37:43;10.00;99.90
13982;DHT22;7065;50.880;5.502;2023-02-18T16:40:25;10.00;99.90
13982;DHT22;7065;50.880;5.502;2023-02-18T16:42:52;10.00;99.90
13982;DHT22;7065;50.880;5.502;2023-02-18T16:45:19;10.00;99.90
13982;DHT22;7065;50.880;5.502;2023-02-18T16:47:47;10.00;99.90
13982;DHT22;7065;50.880;5.502;2023-02-18T16:50:17;10.00;99.90
13982;DHT22;7065;50.880;5.502;2023-02-18T16:52:43;10.00;99.90
13982;DHT22;7065;50.880;5.502;2023-02-18T16:55:21;10.00;99.90
13982;DHT22;7065;50.880;5.502;2023-02-18T16:57:47;10.00;99.90
13982;DHT22;7065;50.880;5.502;2023-02-18T17:00:14;10.00;99.90
13982;DHT22;7065;50.880;5.502;2023-02-18T17:02:41;10.00;99.90
13982;DHT22;7065;50.880;5.502;2023-02-18T17:05:07;10.00;99.90
13982;DHT22;7065;50.880;5.502;2023-02-18T17:07:34;10.00;99.90
13982;DHT22;7065;50.880;5.502;2023-02-18T17:10:01;10.00;99.90
13982;DHT22;7065;50.880;5.502;2023-02-18T17:12:27;10.00;99.90
13982;DHT22;7065;50.880;5.502;2023-02-18T17:14:53;10.00;99.90
13982;DHT22;7065;50.880;5.502;2023-02-18T17:17:18;10.00;99.90
13982;DHT22;7065;50.880;5.502;2023-02-18T17:19:50;10.00;99.90
13982;DHT22;7065;50.880;5.502;2023-02-18T17:22:16;10.00;99.90
13982;DHT22;7065;50.880;5.502;2023-02-18T17:24:41;10.00;99.90
13982;DHT22;7065;50.880;5.502;2023-02-18T17:27:09;10.00;99.90
13982;DHT22;7065;50.880;5.502;2023-02-18T17:29:35;10.00;99.90
13982;DHT22;7065;50.880;5.502;2023-02-18T17:32:01;10.00;99.90
13982;DHT22;7065;50.880;5.502;2023-02-18T17:34:30;10.00;99.90
13982;DHT22;7065;50.880;5.502;2023-02-18T17:36:57;10.00;99.90
13982;DHT22;7065;50.880;5.502;2023-02-18T17:39:22;10.00;99.90
13982;DHT22;7065;50.880;5.502;2023-02-18T17:41:49;10.00;99.90
13982;DHT22;7065;50.880;5.502;2023-02-18T17:46:42;10.00;99.90
13982;DHT22;7065;50.880;5.502;2023-02-18T17:49:07;9.90;99.90
13982;DHT22;7065;50.880;5.502;2023-02-18T17:51:33;10.00;99.90
13982;DHT22;7065;50.880;5.502;2023-02-18T17:54:16;10.00;99.90
13982;DHT22;7065;50.880;5.502;2023-02-18T17:56:43;9.90;99.90
13982;DHT22;7065;50.880;5.502;2023-02-18T17:59:09;10.00;99.90
13982;DHT22;7065;50.880;5.502;2023-02-18T18:01:35;10.00;99.90
13982;DHT22;7065;50.880;5.502;2023-02-18T18:04:01;10.00;99.90
13982;DHT22;7065;50.880;5.502;2023-02-18T18:06:27;10.00;99.90
13982;DHT22;7065;50.880;5.502;2023-02-18T18:08:53;10.00;99.90
13982;DHT22;7065;50.880;5.502;2023-02-18T18:11:23;10.00;99.90
13982;DHT22;7065;50.880;5.502;2023-02-18T18:13:50;9.90;99.90
13982;DHT22;7065;50.880;5.502;2023-02-18T18:16:17;9.90;99.90
13982;DHT22;7065;50.880;5.502;2023-02-18T18:18:43;9.90;99.90
13982;DHT22;7065;50.880;5.502;2023-02-18T18:21:36;9.90;99.90
13982;DHT22;7065;50.880;5.502;2023-02-18T18:24:02;9.90;99.90
13982;DHT22;7065;50.880;5.502;2023-02-18T18:26:29;9.90;99.90
13982;DHT22;7065;50.880;5.502;2023-02-18T18:28:55;9.90;99.90
13982;DHT22;7065;50.880;5.502;2023-02-18T18:31:21;9.90;99.90
13982;DHT22;7065;50.880;5.502;2023-02-18T18:33:48;9.90;99.90
13982;DHT22;7065;50.880;5.502;2023-02-18T18:36:16;9.90;99.90
13982;DHT22;7065;50.880;5.502;2023-02-18T18:38:44;9.90;99.90
13982;DHT22;7065;50.880;5.502;2023-02-18T18:41:14;9.90;99.90
13982;DHT22;7065;50.880;5.502;2023-02-18T18:43:39;9.90;99.90
13982;DHT22;7065;50.880;5.502;2023-02-18T18:46:05;10.00;99.90